Aviation Digital Data Service (ADDS)

Output produced by METARs form (0307 UTC 16 August 2018)
found at http://www.aviationweather.gov/adds/metars/
 
HKEL 160200Z VRB02KT CAVOK 13/11 Q1026
TAF HKEL 152300Z 1600/1700 17006KT CAVOK 
     BECMG 1600/1603 04005KT 
     BECMG 1606/1612 04005KT -SHRA FEW024CB BKN025 
     BECMG 1612/1615 16005KT 
     BECMG 1618/1621 SHRA FEW021CB BKN022 BKN080
       
HKJK 160200Z 20006KT 9999 BKN017 13/11 Q1025
TAF HKJK 152300Z 1600/1706 14005KT 9999 BKN020 
     BECMG 1606/1609 16008KT BKN025 
     BECMG 1618/1621 04008KT
       
HKKI 160200Z 02003KT 9999 FEW019 SCT080 19/15 Q1019
TAF HKKI 152300Z 1600/1700 02003KT 9999 FEW021 SCT080 
     BECMG 1600/1603 CAVOK 
     BECMG 1603/1606 10005KT 
     BECMG 1609/1612 20005KT 
     BECMG 1618/1621 04005KT 
     BECMG 1621/1700 02005KT FEW019 BKN080
       
HKMO 160200Z 23005KT 9999 SCT019 22/21 Q1018 NOSIG
TAF HKMO 152300Z 1600/1706 24005KT 9999 FEW018 
     BECMG 1609/1615 16010KT SCT026 
     BECMG 1618/1621 21005KT FEW022
       
HKNW 160200Z 18004KT 9999 BKN016 14/12 Q1024